Elliot Chaparral Reserve, California Weather observations

Data are for 10 minute period ending at time listed.
 Day   Time   Solar   Ave.   Ave.  Ave.  Vector  Max.   Baro.   Total    
  of    of     Rad.   Air    Rel.  Wind   Wind   Wind  Press.  Precip.   
Year   Day            Temp.  Hum.  Speed  Dir.   Gust                    
2017   (PST)  Kw/m2    F      %     mph   deg.    mph    mb.     in.     
-------------------------------------------------------------------------
 203   18:20   0.06   72.4    65    7.2   247     9.9   982.5    0.00 
 203   18:30   0.03   71.7    66    7.3   242     9.4   982.6    0.00 
 203   18:40   0.02   70.6    69    7.7   237     9.7   982.8    0.00 
 203   18:50   0.00   69.9    70    7.4   234     9.1   982.9    0.00 
 203   19:00   0.00   69.2    72    7.4   233     9.0   983.1    0.00 
 203   19:10   0.00   68.8    73    6.8   239     9.0   983.3    0.00 
 203   19:20   0.00   68.2    74    5.9   237     7.5   983.3    0.00 
 203   19:30   0.00   67.8    76    5.4   236     6.9   983.5    0.00 
 203   19:40   0.00   67.4    77    5.4   226     6.9   983.7    0.00 
 203   19:50   0.00   67.1    78    5.4   228     6.6   983.8    0.00 
 203   20:00   0.00   66.8    79    5.7   234     6.6   983.8    0.00 
 203   20:10   0.00   66.6    80    5.2   240     6.1   983.9    0.00 
 203   20:20   0.00   66.5    80    5.1   244     6.4   983.9    0.00 
 203   20:30   0.00   66.3    81    5.2   252     6.3   983.9    0.00 
 203   20:40   0.00   66.2    82    4.6   256     5.5   984.0    0.00 
 203   20:50   0.00   66.0    82    5.0   240     6.1   984.1    0.00 
 203   21:00   0.00   65.6    83    5.4   232     6.2   984.1    0.00 
 203   21:10   0.00   65.5    84    5.4   238     6.6   984.1    0.00 
 203   21:20   0.00   65.4    84    3.9   230     5.1   984.3    0.00 
 203   21:30   0.00   65.3    84    3.0   239     4.2   984.4    0.00 
 203   21:40   0.00   65.4    84    2.2   236     3.1   984.4    0.00 
 203   21:50   0.00   65.3    84    2.1   236     2.9   984.4    0.00 
 203   22:00   0.00   65.2    85    1.7   237     2.4   984.3    0.00 
 203   22:10   0.00   65.2    85    0.4   258     1.4   984.2    0.00 
 203   22:20   0.00   65.1    84    0.5   328     1.2   984.2    0.00 
 203   22:30   0.00   65.2    85    0.1   322     0.7   984.1    0.00 
 203   22:40   0.00   65.1    84    0.4   120     0.9   984.1    0.00 
 203   22:50   0.00   65.0    85    0.0     0     0.0   984.1    0.00 
 203   23:00   0.00   65.3    85    0.2   120     0.7   984.0    0.00 
 203   23:10   0.00   65.4    84    0.0     0     0.0   984.0    0.00 
 203   23:20   0.00   65.4    84    0.2   120     0.6   984.0    0.00 
 203   23:30   0.00   65.3    84    0.8    65     1.4   983.8    0.00 
 203   23:40   0.00   65.4    84    0.0     0     0.0   983.7    0.00 
 203   23:50   0.00   65.5    84    0.2   133     1.2   983.7    0.00 
 204    0:00   0.00   65.4    84    0.7   283     1.8   983.5    0.00 
 204    0:10   0.00   65.4    84    1.8   306     2.4   983.5    0.00 
 204    0:20   0.00   65.2    85    0.9   328     2.1   983.4    0.00 
 204    0:30   0.00   65.3    85    1.2   314     1.6   983.3    0.00 
 204    0:40   0.00   65.2    84    0.9   288     2.8   983.2    0.00 
 204    0:50   0.00   65.0    85    3.3   274     3.9   983.0    0.00 
 204    1:00   0.00   64.8    86    2.5   266     2.9   983.1    0.00 
 204    1:10   0.00   64.5    86    4.4   270     5.3   983.1    0.00 
 204    1:20   0.00   64.4    86    3.6   263     4.8   983.1    0.00 
 204    1:30   0.00   64.2    86    4.6   264     5.4   982.9    0.00 
 204    1:40   0.00   64.1    86    1.6   274     4.3   982.9    0.00 
 204    1:50   0.00   63.7    86    1.1    81     1.8   983.1    0.00 
 204    2:00   0.00   63.9    87    0.9   290     1.9   983.2    0.00 
 204    2:10   0.00   64.0    87    1.2   246     2.2   983.1    0.00 
 204    2:20   0.00   63.8    87    2.5   252     3.4   983.0    0.00 
 204    2:30   0.00   63.6    88    2.4   266     2.9   982.9    0.00 
 204    2:40   0.00   63.5    88    2.7   255     4.1   982.8    0.00 
 204    2:50   0.00   63.0    88    1.0   131     2.2   982.9    0.00 
 204    3:00   0.00   63.2    89    0.9   131     1.8   983.0    0.00 
 204    3:10   0.00   63.1    89    0.5   125     1.5   983.0    0.00 
 204    3:20   0.00   63.4    90    1.7   262     2.7   982.9    0.00 
 204    3:30   0.00   63.6    90    2.4   262     3.4   982.9    0.00 
 204    3:40   0.00   63.3    90    0.6   249     2.4   983.0    0.00 
 204    3:50   0.00   63.2    90    0.4   332     1.5   982.9    0.00 
 204    4:00   0.00   63.3    90    1.5    42     2.0   983.0    0.00 
 204    4:10   0.00   63.3    91    2.5    61     3.5   983.2    0.00 
 204    4:20   0.00   63.4    91    2.7    60     3.7   983.2    0.00 
 204    4:30   0.00   63.7    91    2.7    33     3.7   983.1    0.00 
 204    4:40   0.00   63.9    91    3.9    15     4.7   983.2    0.00 
 204    4:50   0.00   63.8    92    4.1    15     4.7   983.1    0.00 
 204    5:00   0.00   63.7    92    3.8     6     4.7   983.1    0.00 
 204    5:10   0.00   63.6    92    1.9   350     2.7   983.1    0.00 
 204    5:20   0.01   63.9    92    1.7     8     3.1   983.2    0.00 
 204    5:30   0.03   63.3    91    3.6    92     5.7   983.5    0.00 
 204    5:40   0.07   64.0    91    2.4    93     5.0   983.5    0.00 
 204    5:50   0.08   65.3    88    1.2   105     2.0   983.5    0.00 
 204    6:00   0.11   66.9    84    0.7    28     1.5   983.5    0.00 
 204    6:10   0.14   67.7    80    1.3   226     2.7   983.7    0.00 
 204    6:20   0.17   67.9    80    1.4   279     2.9   983.8    0.00 
 204    6:30   0.20   68.4    79    1.7   284     3.9   983.9    0.00 
 204    6:40   0.23   69.0    77    2.4   224     5.1   983.8    0.00 
 204    6:50   0.27   70.1    75    1.3   215     3.8   983.9    0.00 
 204    7:00   0.30   70.6    74    2.6   240     6.0   984.0    0.00 
 204    7:10   0.33   71.1    72    2.8   204     5.1   984.1    0.00 
 204    7:20   0.37   71.9    70    3.5   207     6.6   984.2    0.00 
 204    7:30   0.40   72.3    69    2.6   218     5.6   984.2    0.00 
 204    7:40   0.43   72.8    68    4.9   231     8.7   984.2    0.00 
 204    7:50   0.47   73.2    67    4.2   241     6.6   984.2    0.00 
 204    8:00   0.54   74.1    65    3.5   211     7.2   984.2    0.00 
 204    8:10   0.56   75.1    63    3.8   200     7.7   984.2    0.00 
 204    8:20   0.57   75.7    61    4.2   210     8.8   984.1    0.00 
 204    8:30   0.59   75.7    60    3.6   232     7.9   983.9    0.00 
 204    8:40   0.61   76.9    58    4.6   221     8.6   983.9    0.00 
 204    8:50   0.65   77.4    57    4.4   214     8.2   983.8    0.00 
 204    9:00   0.66   77.5    56    3.2   242     7.0   983.8    0.00 
 204    9:10   0.68   78.6    54    4.1   243     7.6   983.7    0.00 
 204    9:20   0.70   78.7    54    7.0   296    10.3   983.6    0.00 
 204    9:30   0.72   79.1    54    4.8   268     8.4   983.6    0.00 
 204    9:40   0.75   80.0    52    5.4   258     9.6   983.6    0.00 
 204    9:50   0.77   80.5    51    5.9   252    10.4   983.5    0.00 
 204   10:00   0.79   81.0    51    6.8   263    12.7   983.4    0.00 
 204   10:10   0.80   81.0    50    5.7   280     8.6   983.4    0.00 
 204   10:20   0.81   82.1    48    6.1   219    11.0   983.4    0.00 
 204   10:30   0.84   83.1    47    6.4   267    12.5   983.4    0.00 
 204   10:40   0.85   83.4    47    6.5   261    11.0   983.3    0.00 
 204   10:50   0.85   82.7    49    7.1   239    12.7   983.3    0.00 
 204   11:00   0.84   83.0    50   10.6   259    14.7   983.2    0.00 
 204   11:10   0.93   82.5    51   10.7   278    15.6   983.1    0.00 
 204   11:20   0.90   82.8    51    8.5   274    13.7   983.0    0.00 
 204   11:30   0.93   82.3    52   10.5   277    16.4   982.9    0.00 
 204   11:40   1.01   82.8    50    8.0   270    12.9   982.8    0.00 
 204   11:50   0.99   83.2    49    8.9   267    13.8   982.8    0.00 
 204   12:00   0.90   83.5    49    9.4   276    15.5   982.7    0.00 
 204   12:10   0.89   83.0    50   10.2   284    14.5   982.6    0.00 
 204   12:20   0.88   83.7    48    8.2   260    13.1   982.5    0.00 
 204   12:30   0.87   82.7    49    8.4   245    13.8   982.4    0.00 
 204   12:40   0.87   83.3    48    9.1   252    15.1   982.2    0.00 
 204   12:50   0.86   83.2    47    9.6   245    13.4   982.1    0.00 
 204   13:00   0.85   83.9    46    9.1   248    16.6   982.0    0.00 
 204   13:10   0.84   84.8    44    9.8   261    14.2   982.0    0.00 
 204   13:20   0.83   84.7    44    9.8   268    15.5   982.0    0.00 
 204   13:30   0.82   85.5    43   10.7   252    17.0   981.9    0.00 
 204   13:40   0.80   85.2    43   10.3   246    18.4   981.8    0.00 
 204   13:50   0.79   84.6    44   10.1   257    16.7   981.8    0.00 
 204   14:00   0.77   84.6    44   11.9   244    16.9   981.8    0.00 
 204   14:10   0.77   83.9    46   12.6   257    19.7   981.8    0.00 
 204   14:20   0.74   83.0    47   11.8   252    18.9   981.7    0.00 
 204   14:30   0.73   82.7    47   12.4   252    16.5   981.6    0.00 
 204   14:40   0.70   82.9    46   11.6   250    18.1   981.6    0.00 
 204   14:50   0.67   82.7    46   12.2   247    16.7   981.5    0.00 
 204   15:00   0.63   81.6    48   12.9   238    21.7   981.5    0.00 
 204   15:10   0.60   80.3    51   13.6   235    20.2   981.5    0.00 
 204   15:20   0.58   79.5    52   13.3   235    18.3   981.5    0.00 
 204   15:30   0.55   79.8    52   13.4   237    18.7   981.5    0.00 
 204   15:40   0.52   79.5    52   11.3   236    16.7   981.7    0.00 
 204   15:50   0.49   78.8    53   11.8   244    16.4   981.7    0.00 
 204   16:00   0.46   79.6    51   11.1   228    15.4   981.8    0.00 
 204   16:10   0.43   78.2    54   12.6   225    17.4   981.7    0.00 
 204   16:20   0.40   78.3    55   11.8   234    18.5   981.8    0.00 
 204   16:30   0.37   77.3    56   11.8   232    16.5   981.8    0.00 
 204   16:40   0.34   76.9    57   10.2   238    13.2   981.7    0.00 
 204   16:50   0.31   76.4    59   11.1   236    14.7   981.8    0.00 
 204   17:00   0.28   76.0    59   10.5   235    14.5   981.9    0.00 
 204   17:10   0.24   75.6    60    9.3   236    13.2   981.9    0.00 
 204   17:20   0.21   75.1    60    8.7   237    14.7   982.1    0.00 
 204   17:30   0.18   74.7    62   10.2   231    13.3   982.1    0.00 
 204   17:40   0.15   73.8    64   10.1   250    14.2   982.2    0.00 
 204   17:50   0.12   72.7    66    8.5   228    12.4   982.4    0.00 
 204   18:00   0.09   72.7    67    8.3   232    11.6   982.4    0.00 
 204   18:10   0.08   72.1    69    8.0   256    12.6   982.6    0.00 

Return to Elliot Chaparral Reserve graphs page.


Western Regional Climate Center,wrcc@dri.edu